createdAt,value
2024-05-09T00:00:30.330Z,0.00
2024-05-09T00:01:22.620Z,0.00
2024-05-09T00:02:22.787Z,0.00
2024-05-09T00:03:22.747Z,0.00
2024-05-09T00:04:22.902Z,0.00
2024-05-09T00:05:22.986Z,0.00
2024-05-09T00:06:22.947Z,0.00
2024-05-09T00:07:23.016Z,0.00
2024-05-09T00:08:23.179Z,0.00
2024-05-09T00:09:23.168Z,0.00
2024-05-09T00:10:32.608Z,0.00
2024-05-09T00:11:23.527Z,0.00
2024-05-09T00:12:23.496Z,0.00
2024-05-09T00:13:23.487Z,0.00
2024-05-09T00:14:23.642Z,0.00
2024-05-09T00:15:23.663Z,0.00
2024-05-09T00:16:23.718Z,0.00
2024-05-09T00:17:24.001Z,0.00
2024-05-09T00:18:24.051Z,0.00
2024-05-09T00:19:23.995Z,0.00
2024-05-09T00:20:28.504Z,0.00
2024-05-09T00:21:24.132Z,0.00
2024-05-09T00:22:24.192Z,0.00
2024-05-09T00:23:24.327Z,0.00
2024-05-09T00:24:24.371Z,0.00
2024-05-09T00:25:24.457Z,0.00
2024-05-09T00:26:24.620Z,0.00
2024-05-09T00:27:24.638Z,0.00
2024-05-09T00:28:24.712Z,0.00
2024-05-09T00:29:24.933Z,0.00
2024-05-09T00:30:33.170Z,0.00
2024-05-09T00:31:24.945Z,0.00
2024-05-09T00:32:25.204Z,0.00
2024-05-09T00:33:25.351Z,0.00
2024-05-09T00:34:25.290Z,0.00
2024-05-09T00:35:25.494Z,0.00
2024-05-09T00:36:25.372Z,0.00
2024-05-09T00:37:25.469Z,0.00
2024-05-09T00:38:25.559Z,0.00
2024-05-09T00:39:25.634Z,0.00
2024-05-09T00:40:35.354Z,0.00
2024-05-09T00:41:25.839Z,0.00
2024-05-09T00:42:25.881Z,0.00
2024-05-09T00:43:25.969Z,0.00
2024-05-09T00:44:26.235Z,0.00
2024-05-09T00:45:26.153Z,0.00
2024-05-09T00:46:26.240Z,0.00
2024-05-09T00:47:26.612Z,0.00
2024-05-09T00:48:26.771Z,0.00
2024-05-09T00:49:26.828Z,0.00
2024-05-09T00:50:35.326Z,0.00
2024-05-09T00:51:26.669Z,0.00
2024-05-09T00:52:26.775Z,0.00
2024-05-09T00:53:26.877Z,0.00
2024-05-09T00:54:26.907Z,0.00
2024-05-09T00:55:26.991Z,0.00
2024-05-09T00:56:27.146Z,0.00
2024-05-09T00:57:27.177Z,0.00
2024-05-09T00:58:27.259Z,0.00
2024-05-09T00:59:27.487Z,0.00
2024-05-09T01:00:35.564Z,0.00
2024-05-09T01:01:27.557Z,0.00
2024-05-09T01:02:27.712Z,0.00
2024-05-09T01:03:28.194Z,0.00
2024-05-09T01:04:27.879Z,0.00
2024-05-09T01:05:27.844Z,0.00
2024-05-09T01:06:27.904Z,0.00
2024-05-09T01:07:27.998Z,0.00
2024-05-09T01:08:28.135Z,0.00
2024-05-09T01:09:28.174Z,0.00
2024-05-09T01:10:34.026Z,0.00
2024-05-09T01:11:28.389Z,0.00
2024-05-09T01:12:28.540Z,0.00
2024-05-09T01:13:28.482Z,0.00
2024-05-09T01:14:28.586Z,0.00
2024-05-09T01:15:28.642Z,0.00
2024-05-09T01:16:28.737Z,0.00
2024-05-09T01:17:28.974Z,0.00
2024-05-09T01:18:28.989Z,0.00
2024-05-09T01:19:29.236Z,0.00
2024-05-09T01:20:39.521Z,0.00
2024-05-09T01:21:29.169Z,0.00
2024-05-09T01:22:29.244Z,0.00
2024-05-09T01:23:29.361Z,0.00
2024-05-09T01:24:29.417Z,0.00
2024-05-09T01:25:29.534Z,0.00
2024-05-09T01:26:29.715Z,0.00
2024-05-09T01:27:29.696Z,0.00
2024-05-09T01:28:29.783Z,0.00
2024-05-09T01:29:29.951Z,0.00
2024-05-09T01:30:34.814Z,0.00
2024-05-09T01:31:30.052Z,0.00
2024-05-09T01:32:30.234Z,0.00
2024-05-09T01:33:30.387Z,0.00
2024-05-09T01:34:30.291Z,0.00
2024-05-09T01:35:30.484Z,0.00
2024-05-09T01:36:30.451Z,0.00
2024-05-09T01:37:30.545Z,0.00
2024-05-09T01:38:30.777Z,0.00
2024-05-09T01:39:30.716Z,0.00
2024-05-09T01:40:37.354Z,0.00
2024-05-09T01:41:30.968Z,0.00
2024-05-09T01:42:30.934Z,0.00
2024-05-09T01:43:31.018Z,0.00
2024-05-09T01:44:31.214Z,0.00
2024-05-09T01:45:31.196Z,0.00
2024-05-09T01:46:31.295Z,0.00
2024-05-09T01:47:31.529Z,0.00
2024-05-09T01:48:31.544Z,0.00
2024-05-09T01:49:31.661Z,0.00
2024-05-09T01:51:31.732Z,0.00
2024-05-09T01:52:31.818Z,0.00
2024-05-09T01:53:31.962Z,0.00
2024-05-09T01:54:31.992Z,0.00
2024-05-09T01:55:32.075Z,0.00
2024-05-09T01:56:32.166Z,0.00
2024-05-09T01:57:32.240Z,0.00
2024-05-09T01:58:32.339Z,0.00
2024-05-09T01:59:32.565Z,0.00
2024-05-09T02:00:38.969Z,0.00
2024-05-09T02:01:55.405Z,0.00
2024-05-09T02:02:32.735Z,0.00
2024-05-09T02:03:32.840Z,0.00
2024-05-09T02:04:32.860Z,0.00
2024-05-09T02:05:32.967Z,0.00
2024-05-09T02:06:32.993Z,0.00
2024-05-09T02:07:33.075Z,0.00
2024-05-09T02:08:33.411Z,0.00
2024-05-09T02:09:33.249Z,0.00
2024-05-09T02:10:33.720Z,0.00
2024-05-09T02:11:33.520Z,0.00
2024-05-09T02:12:33.639Z,0.00
2024-05-09T02:13:33.586Z,0.00
2024-05-09T02:14:33.703Z,0.00
2024-05-09T02:15:33.766Z,0.00
2024-05-09T02:16:33.851Z,0.00
2024-05-09T02:17:34.074Z,0.00
2024-05-09T02:18:34.080Z,0.00
2024-05-09T02:19:34.228Z,0.00
2024-05-09T02:20:36.657Z,0.00
2024-05-09T02:21:34.289Z,0.00
2024-05-09T02:22:34.366Z,0.00
2024-05-09T02:23:34.556Z,0.00
2024-05-09T02:24:34.520Z,0.00
2024-05-09T02:25:34.900Z,0.00
2024-05-09T02:26:34.787Z,0.00
2024-05-09T02:27:34.786Z,0.00
2024-05-09T02:28:34.869Z,0.00
2024-05-09T02:29:35.014Z,0.00
2024-05-09T02:30:39.738Z,0.00
2024-05-09T02:31:35.140Z,0.00
2024-05-09T02:32:35.493Z,0.00
2024-05-09T02:33:35.461Z,0.00
2024-05-09T02:34:35.455Z,0.00
2024-05-09T02:35:35.590Z,0.00
2024-05-09T02:36:35.539Z,0.00
2024-05-09T02:37:35.651Z,0.00
2024-05-09T02:38:35.814Z,0.00
2024-05-09T02:39:35.817Z,0.00
2024-05-09T02:40:38.406Z,0.00
2024-05-09T02:41:36.042Z,0.00
2024-05-09T02:42:36.061Z,0.00
2024-05-09T02:43:36.172Z,0.00
2024-05-09T02:44:36.325Z,0.00
2024-05-09T02:45:36.354Z,0.00
2024-05-09T02:46:36.421Z,0.00
2024-05-09T02:47:36.703Z,0.00
2024-05-09T02:48:36.701Z,0.00
2024-05-09T02:49:36.812Z,0.00
2024-05-09T02:50:39.350Z,0.00
2024-05-09T02:51:36.814Z,0.00
2024-05-09T02:52:36.918Z,0.00
2024-05-09T02:53:37.172Z,0.00
2024-05-09T02:54:37.069Z,0.00
2024-05-09T02:55:37.189Z,0.00
2024-05-09T02:56:37.353Z,0.00
2024-05-09T02:57:37.296Z,0.00
2024-05-09T02:58:37.398Z,0.00
2024-05-09T02:59:37.501Z,0.00
2024-05-09T03:00:40.813Z,0.00
2024-05-09T03:01:37.747Z,0.00
2024-05-09T03:02:37.932Z,0.00
2024-05-09T03:03:38.079Z,0.00
2024-05-09T03:04:37.936Z,0.00
2024-05-09T03:05:38.106Z,0.00
2024-05-09T03:06:38.047Z,0.00
2024-05-09T03:07:38.132Z,0.00
2024-05-09T03:08:38.453Z,0.00
2024-05-09T03:09:38.297Z,0.00
2024-05-09T03:10:39.381Z,0.00
2024-05-09T03:11:38.560Z,0.00
2024-05-09T03:12:39.445Z,0.00
2024-05-09T03:13:38.675Z,0.00
2024-05-09T03:14:38.770Z,0.00
2024-05-09T03:15:38.798Z,0.00
2024-05-09T03:16:38.865Z,0.00
2024-05-09T03:17:39.183Z,0.00
2024-05-09T03:18:39.155Z,0.00
2024-05-09T03:19:39.123Z,0.00
2024-05-09T03:20:39.778Z,0.00
2024-05-09T03:21:39.280Z,0.00
2024-05-09T03:22:39.350Z,0.00
2024-05-09T03:23:39.670Z,0.00
2024-05-09T03:24:39.546Z,0.00
2024-05-09T03:25:39.626Z,0.00
2024-05-09T03:26:39.753Z,0.00
2024-05-09T03:27:39.797Z,0.00
2024-05-09T03:28:39.870Z,0.00
2024-05-09T03:29:39.998Z,0.00
2024-05-09T03:30:42.636Z,0.00
2024-05-09T03:31:40.202Z,0.00
2024-05-09T03:32:40.315Z,0.00
2024-05-09T03:33:40.703Z,0.00
2024-05-09T03:34:40.385Z,0.00
2024-05-09T03:35:40.516Z,0.00
2024-05-09T03:36:40.531Z,0.00
2024-05-09T03:37:40.621Z,0.00
2024-05-09T03:38:40.788Z,5.62
2024-05-09T03:39:40.812Z,5.62
2024-05-09T03:40:40.905Z,5.62
2024-05-09T03:41:41.065Z,5.62
2024-05-09T03:42:41.091Z,5.62
2024-05-09T03:43:41.194Z,5.62
2024-05-09T03:44:41.290Z,5.62
2024-05-09T03:45:41.348Z,11.25
2024-05-09T03:46:41.430Z,11.25
2024-05-09T03:47:41.843Z,11.25
2024-05-09T03:48:41.755Z,11.25
2024-05-09T03:49:41.721Z,11.25
2024-05-09T03:50:41.931Z,16.88
2024-05-09T03:51:41.892Z,16.88
2024-05-09T03:52:41.991Z,16.88
2024-05-09T03:53:42.102Z,22.50
2024-05-09T03:54:42.174Z,22.50
2024-05-09T03:55:42.285Z,22.50
2024-05-09T03:56:42.508Z,28.12
2024-05-09T03:57:42.457Z,28.12
2024-05-09T03:58:42.536Z,33.75
2024-05-09T03:59:42.594Z,33.75
2024-05-09T04:00:42.819Z,39.38
2024-05-09T04:01:42.946Z,39.38
2024-05-09T04:02:42.924Z,39.38
2024-05-09T04:03:43.179Z,45.00
2024-05-09T04:04:43.014Z,45.00
2024-05-09T04:05:43.897Z,50.62
2024-05-09T04:06:43.149Z,56.25
2024-05-09T04:07:43.248Z,56.25
2024-05-09T04:08:43.373Z,61.88
2024-05-09T04:09:43.427Z,61.88
2024-05-09T04:10:43.558Z,67.50
2024-05-09T04:11:43.695Z,73.12
2024-05-09T04:12:43.633Z,73.12
2024-05-09T04:13:43.792Z,78.75
2024-05-09T04:14:43.810Z,84.38
2024-05-09T04:15:43.881Z,84.38
2024-05-09T04:16:44.054Z,90.00
2024-05-09T04:17:44.146Z,90.00
2024-05-09T04:18:44.201Z,95.62
2024-05-09T04:19:44.238Z,101.25
2024-05-09T04:20:44.289Z,106.88
2024-05-09T04:21:44.366Z,106.88
2024-05-09T04:22:44.514Z,112.50
2024-05-09T04:23:44.556Z,118.12
2024-05-09T04:24:44.630Z,123.75
2024-05-09T04:25:45.630Z,129.38
2024-05-09T04:26:44.782Z,135.00
2024-05-09T04:27:44.875Z,140.62
2024-05-09T04:28:45.007Z,146.25
2024-05-09T04:29:45.042Z,151.88
2024-05-09T04:30:45.125Z,157.50
2024-05-09T04:31:45.258Z,163.12
2024-05-09T04:32:45.479Z,163.12
2024-05-09T04:33:45.469Z,168.75
2024-05-09T04:34:45.485Z,174.38
2024-05-09T04:35:45.738Z,180.00
2024-05-09T04:36:45.609Z,185.62
2024-05-09T04:37:45.767Z,191.25
2024-05-09T04:38:45.854Z,202.50
2024-05-09T04:39:45.875Z,208.12
2024-05-09T04:40:46.122Z,213.75
2024-05-09T04:41:46.030Z,225.00
2024-05-09T04:42:46.133Z,230.62
2024-05-09T04:43:46.274Z,236.25
2024-05-09T04:44:46.321Z,236.25
2024-05-09T04:45:46.402Z,241.88
2024-05-09T04:46:46.492Z,247.50
2024-05-09T04:47:46.852Z,253.12
2024-05-09T04:48:46.702Z,258.75
2024-05-09T04:49:46.703Z,270.00
2024-05-09T04:50:46.867Z,270.00
2024-05-09T04:51:46.871Z,281.25
2024-05-09T04:52:47.001Z,292.50
2024-05-09T04:53:47.091Z,298.12
2024-05-09T04:54:47.144Z,303.75
2024-05-09T04:55:47.374Z,315.00
2024-05-09T04:56:47.323Z,320.62
2024-05-09T04:57:47.404Z,326.25
2024-05-09T04:58:47.564Z,331.88
2024-05-09T04:59:47.539Z,343.12
2024-05-09T05:00:47.737Z,348.75
2024-05-09T05:01:47.826Z,354.38
2024-05-09T05:02:47.872Z,365.62
2024-05-09T05:03:48.074Z,376.88
2024-05-09T05:04:48.042Z,382.50
2024-05-09T05:05:48.185Z,393.75
2024-05-09T05:06:48.141Z,399.38
2024-05-09T05:07:48.237Z,410.62
2024-05-09T05:08:48.318Z,416.25
2024-05-09T05:09:48.401Z,421.88
2024-05-09T05:10:49.367Z,427.50
2024-05-09T05:11:48.616Z,433.12
2024-05-09T05:12:48.642Z,427.50
2024-05-09T05:13:48.781Z,427.50
2024-05-09T05:14:48.802Z,427.50
2024-05-09T05:15:48.950Z,427.50
2024-05-09T05:16:49.001Z,427.50
2024-05-09T05:17:49.232Z,455.62
2024-05-09T05:18:49.239Z,478.12
2024-05-09T05:19:49.391Z,489.38
2024-05-09T05:20:49.370Z,495.00
2024-05-09T05:21:49.334Z,506.25
2024-05-09T05:22:49.450Z,511.88
2024-05-09T05:23:49.561Z,534.38
2024-05-09T05:24:49.598Z,545.62
2024-05-09T05:25:49.946Z,562.50
2024-05-09T05:26:49.759Z,568.12
2024-05-09T05:27:49.853Z,573.75
2024-05-09T05:28:49.947Z,579.38
2024-05-09T05:29:50.090Z,590.62
2024-05-09T05:30:50.377Z,596.25
2024-05-09T05:31:50.248Z,601.88
2024-05-09T05:32:50.455Z,613.12
2024-05-09T05:33:50.441Z,624.38
2024-05-09T05:34:50.529Z,630.00
2024-05-09T05:35:50.497Z,641.25
2024-05-09T05:36:50.572Z,652.50
2024-05-09T05:37:50.741Z,663.75
2024-05-09T05:38:50.817Z,669.38
2024-05-09T05:39:50.838Z,675.00
2024-05-09T05:40:50.947Z,680.62
2024-05-09T05:41:50.995Z,686.25
2024-05-09T05:42:51.060Z,697.50
2024-05-09T05:43:51.173Z,703.12
2024-05-09T05:44:51.217Z,714.38
2024-05-09T05:45:51.293Z,720.00
2024-05-09T05:46:51.390Z,731.25
2024-05-09T05:47:51.575Z,736.88
2024-05-09T05:48:51.621Z,748.12
2024-05-09T05:49:51.646Z,759.38
2024-05-09T05:50:51.753Z,770.62
2024-05-09T05:51:51.784Z,1012.50
2024-05-09T05:52:52.014Z,1445.62
2024-05-09T05:53:51.970Z,1822.50
2024-05-09T05:54:52.096Z,1929.38
2024-05-09T05:55:52.147Z,2109.38
2024-05-09T05:56:52.174Z,2143.12
2024-05-09T05:57:52.270Z,2233.12
2024-05-09T05:58:52.462Z,2250.00
2024-05-09T05:59:52.363Z,2323.12
2024-05-09T06:00:52.523Z,2289.38
2024-05-09T06:01:52.564Z,2238.75
2024-05-09T06:02:52.807Z,2205.00
2024-05-09T06:03:52.840Z,2210.62
2024-05-09T06:04:52.984Z,2266.88
2024-05-09T06:05:52.925Z,2362.50
2024-05-09T06:06:52.933Z,2373.75
2024-05-09T06:07:53.049Z,2368.12
2024-05-09T06:08:53.219Z,2497.50
2024-05-09T06:09:53.180Z,2581.88
2024-05-09T06:10:53.338Z,2418.75
2024-05-09T06:11:53.520Z,2238.75
2024-05-09T06:12:53.404Z,2199.38
2024-05-09T06:13:53.573Z,2216.25
2024-05-09T06:14:53.629Z,2216.25
2024-05-09T06:15:53.691Z,2345.62
2024-05-09T06:16:56.010Z,2469.38
2024-05-09T06:17:54.053Z,2531.25
2024-05-09T06:18:54.213Z,2626.88
2024-05-09T06:19:54.337Z,2806.88
2024-05-09T06:20:54.179Z,2728.12
2024-05-09T06:21:54.190Z,2598.75
2024-05-09T06:22:54.363Z,2666.25
2024-05-09T06:23:54.385Z,2688.75
2024-05-09T06:24:54.480Z,2750.62
2024-05-09T06:25:54.676Z,2812.50
2024-05-09T06:26:54.657Z,2756.25
2024-05-09T06:27:54.748Z,2711.25
2024-05-09T06:28:54.888Z,2936.25
2024-05-09T06:29:54.930Z,3065.62
2024-05-09T06:30:55.033Z,3099.38
2024-05-09T06:31:57.189Z,3178.12
2024-05-09T06:32:55.308Z,2953.12
2024-05-09T06:33:55.340Z,2773.12
2024-05-09T06:34:55.396Z,2643.75
2024-05-09T06:35:55.432Z,2598.75
2024-05-09T06:36:55.519Z,2593.12
2024-05-09T06:37:55.627Z,2565.00
2024-05-09T06:38:55.675Z,2671.88
2024-05-09T06:39:55.741Z,2795.62
2024-05-09T06:40:55.874Z,2835.00
2024-05-09T06:41:55.930Z,2840.62
2024-05-09T06:42:56.027Z,3015.00
2024-05-09T06:43:56.150Z,3133.12
2024-05-09T06:44:56.182Z,3065.62
2024-05-09T06:45:56.240Z,3144.38
2024-05-09T06:46:59.523Z,3138.75
2024-05-09T06:47:56.569Z,3065.62
2024-05-09T06:48:56.791Z,2998.12
2024-05-09T06:49:56.642Z,3110.62
2024-05-09T06:50:56.662Z,3251.25
2024-05-09T06:51:56.734Z,3397.50
2024-05-09T06:52:56.845Z,3425.62
2024-05-09T06:53:56.897Z,3493.12
2024-05-09T06:54:56.980Z,3791.25
2024-05-09T06:55:57.098Z,3695.62
2024-05-09T06:56:57.156Z,3380.62
2024-05-09T06:57:57.259Z,3543.75
2024-05-09T06:58:57.389Z,3763.12
2024-05-09T06:59:57.506Z,3650.62
2024-05-09T07:00:57.536Z,3397.50
2024-05-09T07:01:57.590Z,3408.75
2024-05-09T07:02:58.997Z,3566.25
2024-05-09T07:03:57.817Z,3628.12
2024-05-09T07:04:57.963Z,3639.38
2024-05-09T07:05:58.002Z,3515.62
2024-05-09T07:06:57.990Z,3448.12
2024-05-09T07:07:58.084Z,3279.38
2024-05-09T07:08:58.167Z,3251.25
2024-05-09T07:09:58.204Z,3307.50
2024-05-09T07:10:58.371Z,3324.38
2024-05-09T07:11:58.475Z,3397.50
2024-05-09T07:12:58.451Z,3313.12
2024-05-09T07:13:58.604Z,3228.75
2024-05-09T07:14:58.603Z,3256.88
2024-05-09T07:15:58.678Z,3195.00
2024-05-09T07:16:58.917Z,3211.88
2024-05-09T07:17:58.969Z,2936.25
2024-05-09T07:18:59.106Z,2908.12
2024-05-09T07:19:59.019Z,2643.75
2024-05-09T07:20:59.100Z,3189.38
2024-05-09T07:21:59.133Z,3420.00
2024-05-09T07:22:59.274Z,3330.00
2024-05-09T07:23:59.296Z,3555.00
2024-05-09T07:24:59.372Z,3268.12
2024-05-09T07:25:59.480Z,2964.38
2024-05-09T07:26:59.569Z,3189.38
2024-05-09T07:27:59.628Z,3481.88
2024-05-09T07:28:59.792Z,3791.25
2024-05-09T07:29:59.807Z,3937.50
2024-05-09T07:30:59.891Z,3965.62
2024-05-09T07:32:00.027Z,3948.75
2024-05-09T07:33:00.630Z,4140.00
2024-05-09T07:34:00.405Z,3847.50
2024-05-09T07:35:00.285Z,3864.38
2024-05-09T07:36:00.319Z,3549.38
2024-05-09T07:37:00.423Z,3988.12
2024-05-09T07:38:00.547Z,2221.88
2024-05-09T07:39:00.569Z,2244.38
2024-05-09T07:40:00.617Z,4044.38
2024-05-09T07:41:00.761Z,4117.50
2024-05-09T07:42:00.807Z,4134.38
2024-05-09T07:43:00.869Z,3858.75
2024-05-09T07:44:00.976Z,3740.62
2024-05-09T07:45:14.829Z,3757.50
2024-05-09T07:46:37.846Z,3628.12
2024-05-09T07:49:12.413Z,3639.38
2024-05-09T07:53:36.382Z,3735.00
2024-05-09T07:54:07.301Z,3808.12
2024-05-09T07:55:06.907Z,4095.00
2024-05-09T07:56:07.226Z,4066.88
2024-05-09T07:57:07.122Z,4021.88
2024-05-09T07:58:07.111Z,3926.25
2024-05-09T07:59:07.144Z,3976.88
2024-05-09T08:00:08.245Z,3898.12
2024-05-09T08:01:07.419Z,3656.25
2024-05-09T08:02:07.566Z,3757.50
2024-05-09T08:03:07.489Z,3706.88
2024-05-09T08:04:07.621Z,3645.00
2024-05-09T08:05:07.891Z,3571.88
2024-05-09T08:06:07.716Z,3504.38
2024-05-09T08:07:07.871Z,3583.12
2024-05-09T08:08:07.867Z,3774.38
2024-05-09T08:09:13.594Z,3712.50
2024-05-09T08:10:10.689Z,3526.88
2024-05-09T08:11:08.176Z,3510.00
2024-05-09T08:12:08.204Z,3521.25
2024-05-09T08:13:08.349Z,3560.62
2024-05-09T08:14:08.362Z,3622.50
2024-05-09T08:15:08.437Z,3780.00
2024-05-09T08:16:08.570Z,3729.38
2024-05-09T08:17:08.696Z,3656.25
2024-05-09T08:18:08.991Z,3583.12
2024-05-09T08:19:08.930Z,3538.12
2024-05-09T08:20:09.832Z,3605.62
2024-05-09T08:21:08.900Z,3628.12
2024-05-09T08:22:09.071Z,3785.62
2024-05-09T08:23:09.111Z,3886.88
2024-05-09T08:24:09.157Z,4010.62
2024-05-09T08:25:11.295Z,3960.00
2024-05-09T08:26:09.314Z,3667.50
2024-05-09T08:27:09.392Z,3673.12
2024-05-09T08:28:09.645Z,3808.12
2024-05-09T08:29:09.557Z,3825.00
2024-05-09T08:30:15.596Z,3898.12
2024-05-09T08:31:09.768Z,3768.75
2024-05-09T08:32:09.821Z,3712.50
2024-05-09T08:33:09.950Z,3729.38
2024-05-09T08:34:10.191Z,3684.38
2024-05-09T08:35:10.030Z,3684.38
2024-05-09T08:36:10.153Z,3763.12
2024-05-09T08:37:15.698Z,3729.38
2024-05-09T08:38:10.339Z,3605.62
2024-05-09T08:39:10.397Z,3555.00
2024-05-09T08:40:16.970Z,3645.00
2024-05-09T08:41:10.569Z,3886.88
2024-05-09T08:42:10.656Z,4061.25
2024-05-09T08:43:12.301Z,3971.25
2024-05-09T08:44:10.822Z,3796.88
2024-05-09T08:45:10.917Z,3656.25
2024-05-09T08:46:11.065Z,3791.25
2024-05-09T08:47:11.102Z,3751.88
2024-05-09T08:48:11.292Z,3650.62
2024-05-09T08:49:11.315Z,3515.62
2024-05-09T08:50:23.917Z,3470.62
2024-05-09T08:51:11.437Z,3560.62
2024-05-09T08:52:11.570Z,3678.75
2024-05-09T08:53:11.601Z,3616.88
2024-05-09T08:54:11.680Z,3448.12
2024-05-09T08:55:11.826Z,3341.25
2024-05-09T08:56:12.133Z,3245.62
2024-05-09T08:57:11.918Z,3166.88
2024-05-09T08:58:12.248Z,3144.38
2024-05-09T08:59:12.074Z,3121.88
2024-05-09T09:00:15.132Z,3206.25
2024-05-09T09:01:12.400Z,3211.88
2024-05-09T09:02:12.540Z,3144.38
2024-05-09T09:03:12.502Z,3183.75
2024-05-09T09:04:12.754Z,3223.12
2024-05-09T09:05:12.737Z,3285.00
2024-05-09T09:06:12.716Z,3228.75
2024-05-09T09:07:12.742Z,3273.75
2024-05-09T09:08:12.804Z,3358.12
2024-05-09T09:09:12.869Z,3346.88
2024-05-09T09:10:17.674Z,3256.88
2024-05-09T09:11:13.044Z,3346.88
2024-05-09T09:12:13.121Z,3414.38
2024-05-09T09:13:13.266Z,3481.88
2024-05-09T09:14:13.267Z,3470.62
2024-05-09T09:15:13.350Z,3481.88
2024-05-09T09:16:13.490Z,3560.62
2024-05-09T09:17:13.579Z,3521.25
2024-05-09T09:18:13.676Z,3397.50
2024-05-09T09:19:13.764Z,3346.88
2024-05-09T09:20:16.625Z,3408.75
2024-05-09T09:21:13.832Z,3448.12
2024-05-09T09:22:13.983Z,3448.12
2024-05-09T09:23:14.002Z,3510.00
2024-05-09T09:24:14.086Z,3414.38
2024-05-09T09:25:14.162Z,3285.00
2024-05-09T09:26:14.235Z,3245.62
2024-05-09T09:27:14.310Z,3200.62
2024-05-09T09:28:14.526Z,3195.00
2024-05-09T09:29:14.449Z,2047.50
2024-05-09T09:30:27.768Z,2936.25
2024-05-09T09:31:14.624Z,2728.12
2024-05-09T09:32:14.689Z,2981.25
2024-05-09T09:33:14.858Z,3009.38
2024-05-09T09:34:14.987Z,3015.00
2024-05-09T09:35:14.936Z,1558.12
2024-05-09T09:36:15.007Z,1321.88
2024-05-09T09:37:15.165Z,2469.38
2024-05-09T09:38:15.186Z,2941.88
2024-05-09T09:39:15.257Z,3003.75
2024-05-09T09:40:15.579Z,2846.25
2024-05-09T09:41:15.429Z,2812.50
2024-05-09T09:42:15.473Z,2790.00
2024-05-09T09:43:15.837Z,2851.88
2024-05-09T09:44:15.696Z,2767.50
2024-05-09T09:45:15.696Z,1417.50
2024-05-09T09:46:16.086Z,2576.25
2024-05-09T09:47:15.902Z,2598.75
2024-05-09T09:48:16.019Z,2745.00
2024-05-09T09:49:16.146Z,2728.12
2024-05-09T09:50:20.466Z,2801.25
2024-05-09T09:51:16.171Z,2671.88
2024-05-09T09:52:16.300Z,2593.12
2024-05-09T09:53:16.304Z,2671.88
2024-05-09T09:54:16.404Z,2120.62
2024-05-09T09:55:16.628Z,2716.88
2024-05-09T09:56:16.568Z,2638.12
2024-05-09T09:57:16.622Z,2666.25
2024-05-09T09:58:16.897Z,2626.88
2024-05-09T09:59:16.787Z,2581.88
2024-05-09T10:00:24.037Z,2514.38
2024-05-09T10:01:17.035Z,2525.62
2024-05-09T10:02:17.179Z,2463.75
2024-05-09T10:03:17.192Z,2311.88
2024-05-09T10:04:17.342Z,2188.12
2024-05-09T10:05:17.369Z,2278.12
2024-05-09T10:06:17.358Z,2345.62
2024-05-09T10:07:17.490Z,2311.88
2024-05-09T10:08:17.537Z,2238.75
2024-05-09T10:09:17.609Z,2255.62
2024-05-09T10:10:23.133Z,2182.50
2024-05-09T10:11:17.800Z,2227.50
2024-05-09T10:12:17.895Z,2278.12
2024-05-09T10:13:17.976Z,2261.25
2024-05-09T10:14:18.016Z,2233.12
2024-05-09T10:15:18.095Z,2199.38
2024-05-09T10:16:18.316Z,2143.12
2024-05-09T10:17:18.294Z,2030.62
2024-05-09T10:18:18.508Z,2008.12
2024-05-09T10:19:18.535Z,2041.88
2024-05-09T10:20:22.092Z,2047.50
2024-05-09T10:21:18.631Z,2036.25
2024-05-09T10:22:18.755Z,2019.38
2024-05-09T10:23:18.764Z,1980.00
2024-05-09T10:24:18.835Z,1935.00
2024-05-09T10:25:18.988Z,1929.38
2024-05-09T10:26:19.000Z,1884.38
2024-05-09T10:27:19.068Z,1878.75
2024-05-09T10:28:19.179Z,1828.12
2024-05-09T10:29:19.206Z,1828.12
2024-05-09T10:30:25.967Z,1794.38
2024-05-09T10:31:19.382Z,1620.00
2024-05-09T10:32:19.511Z,1794.38
2024-05-09T10:33:19.680Z,1766.25
2024-05-09T10:34:19.911Z,1743.75
2024-05-09T10:35:19.622Z,1473.75
2024-05-09T10:36:19.702Z,1670.62
2024-05-09T10:37:19.850Z,1676.25
2024-05-09T10:38:19.852Z,1726.88
2024-05-09T10:39:19.924Z,1721.25
2024-05-09T10:40:26.142Z,1710.00
2024-05-09T10:41:20.082Z,1693.12
2024-05-09T10:42:20.151Z,1687.50
2024-05-09T10:43:20.400Z,1659.38
2024-05-09T10:44:20.330Z,1620.00
2024-05-09T10:45:20.538Z,1597.50
2024-05-09T10:46:20.707Z,1580.62
2024-05-09T10:47:20.628Z,1563.75
2024-05-09T10:48:20.760Z,1535.62
2024-05-09T10:49:20.919Z,1501.88
2024-05-09T10:50:28.087Z,1485.00
2024-05-09T10:51:20.914Z,1462.50
2024-05-09T10:52:21.027Z,1400.62
2024-05-09T10:53:21.056Z,1305.00
2024-05-09T10:54:21.142Z,1091.25
2024-05-09T10:55:21.597Z,770.62
2024-05-09T10:56:21.339Z,585.00
2024-05-09T10:57:21.403Z,506.25
2024-05-09T10:58:21.530Z,472.50
2024-05-09T10:59:21.602Z,450.00
2024-05-09T11:00:27.752Z,438.75
2024-05-09T11:01:21.834Z,433.12
2024-05-09T11:02:22.004Z,427.50
2024-05-09T11:03:21.928Z,427.50
2024-05-09T11:04:22.090Z,421.88
2024-05-09T11:05:22.367Z,421.88
2024-05-09T11:06:22.205Z,416.25
2024-05-09T11:07:22.323Z,416.25
2024-05-09T11:08:22.374Z,416.25
2024-05-09T11:09:22.488Z,410.62
2024-05-09T11:10:27.822Z,410.62
2024-05-09T11:11:22.625Z,410.62
2024-05-09T11:12:24.720Z,410.62
2024-05-09T11:13:22.814Z,410.62
2024-05-09T11:14:22.872Z,410.62
2024-05-09T11:15:23.030Z,410.62
2024-05-09T11:16:23.058Z,405.00
2024-05-09T11:17:23.361Z,405.00
2024-05-09T11:18:25.347Z,405.00
2024-05-09T11:19:23.394Z,405.00
2024-05-09T11:20:29.441Z,405.00
2024-05-09T11:21:23.442Z,399.38
2024-05-09T11:22:23.533Z,399.38
2024-05-09T11:23:23.597Z,399.38
2024-05-09T11:24:23.673Z,393.75
2024-05-09T11:25:23.834Z,393.75
2024-05-09T11:26:23.852Z,393.75
2024-05-09T11:27:23.946Z,388.12
2024-05-09T11:28:24.071Z,388.12
2024-05-09T11:29:24.087Z,382.50
2024-05-09T11:30:30.016Z,382.50
2024-05-09T11:31:24.516Z,382.50
2024-05-09T11:32:24.406Z,376.88
2024-05-09T11:33:24.422Z,376.88
2024-05-09T11:34:24.580Z,371.25
2024-05-09T11:35:24.550Z,371.25
2024-05-09T11:36:24.644Z,365.62
2024-05-09T11:37:24.781Z,365.62
2024-05-09T11:38:24.774Z,365.62
2024-05-09T11:39:24.874Z,360.00
2024-05-09T11:40:28.395Z,360.00
2024-05-09T11:41:25.045Z,360.00
2024-05-09T11:42:25.132Z,360.00
2024-05-09T11:43:25.312Z,360.00
2024-05-09T11:44:25.302Z,360.00
2024-05-09T11:45:25.391Z,354.38
2024-05-09T11:46:25.575Z,354.38
2024-05-09T11:47:25.674Z,354.38
2024-05-09T11:48:26.197Z,354.38
2024-05-09T11:49:27.008Z,354.38
2024-05-09T11:50:30.107Z,354.38
2024-05-09T11:51:25.876Z,354.38
2024-05-09T11:52:26.036Z,348.75
2024-05-09T11:53:26.042Z,348.75
2024-05-09T11:54:26.130Z,343.12
2024-05-09T11:55:28.167Z,343.12
2024-05-09T11:56:26.315Z,337.50
2024-05-09T11:57:26.390Z,337.50
2024-05-09T11:58:26.533Z,337.50
2024-05-09T11:59:26.533Z,331.88
2024-05-09T12:00:34.064Z,331.88
2024-05-09T12:01:27.885Z,331.88
2024-05-09T12:02:26.788Z,331.88
2024-05-09T12:03:26.853Z,326.25
2024-05-09T12:04:26.992Z,326.25
2024-05-09T12:05:27.085Z,326.25
2024-05-09T12:06:27.100Z,326.25
2024-05-09T12:07:27.247Z,326.25
2024-05-09T12:08:27.240Z,320.62
2024-05-09T12:09:27.300Z,320.62
2024-05-09T12:10:33.155Z,320.62
2024-05-09T12:11:27.543Z,320.62
2024-05-09T12:12:27.533Z,320.62
2024-05-09T12:13:27.785Z,320.62
2024-05-09T12:14:27.714Z,315.00
2024-05-09T12:15:27.991Z,315.00
2024-05-09T12:16:27.996Z,315.00
2024-05-09T12:17:28.106Z,315.00
2024-05-09T12:18:28.135Z,315.00
2024-05-09T12:19:28.170Z,315.00
2024-05-09T12:20:35.512Z,315.00
2024-05-09T12:21:28.329Z,315.00
2024-05-09T12:22:28.360Z,309.38
2024-05-09T12:23:28.471Z,309.38
2024-05-09T12:24:28.588Z,309.38
2024-05-09T12:25:28.649Z,309.38
2024-05-09T12:26:28.702Z,309.38
2024-05-09T12:27:28.820Z,309.38
2024-05-09T12:28:28.862Z,309.38
2024-05-09T12:29:28.903Z,309.38
2024-05-09T12:30:36.323Z,309.38
2024-05-09T12:31:29.127Z,309.38
2024-05-09T12:32:29.218Z,309.38
2024-05-09T12:33:29.283Z,303.75
2024-05-09T12:34:29.333Z,303.75
2024-05-09T12:35:29.376Z,303.75
2024-05-09T12:36:29.483Z,303.75
2024-05-09T12:37:29.519Z,303.75
2024-05-09T12:38:29.629Z,303.75
2024-05-09T12:39:29.725Z,303.75
2024-05-09T12:40:35.866Z,303.75
2024-05-09T12:41:29.845Z,303.75